Aeroporto :
LOGIN :

Iscrizione | Disclaimer

   EN    FR    IT 

 










Sommario :    VFR   VFR Marginale   IFR   IFR Intensivo   IFR Molto Intensivo
Visibilità : 
Base nubi : 
>= 8 km
>= 3000ft
5 / 8 km
1000 / 3000 ft
1500m / 5 km
500 / 1000 ft
800 / 1500m
200 / 500 ft
< 800m
< 200 ft
Simboli :   Temporali  Nebbia  Neve Forte  Precipitazioni Forti  Vento > 20 kt
SIGMETs :   Varie  Temporali  Ghiacco  Turbolenza  Onda orograficha  Ceneri Vulcaniche







- Altitudine del aeroporto : 40 ft
- Codice IATA : RMI


LIPR - Federico Fellini Int. Rimini

ULTIMO METAR :
  • 200350Z AUTO 21004KT 9000 NCD 18/17 Q1018

METARs OBSOLETI :
  • 200320Z AUTO 21003KT 9000 NCD 18/17 Q1018
  • 200250Z AUTO 21004KT 9000 NCD 18/17 Q1018
  • 200220Z AUTO 21003KT 8000 NCD 18/17 Q1019
  • 200150Z AUTO 20002KT 7000 NCD 18/17 Q1019
  • 200120Z AUTO 23002KT 7000 NCD 19/17 Q1019
  • 200050Z AUTO VRB02KT 6000 NCD 19/18 Q1019

TAF TAF LIPR
Valido dal 20 a 03 ore il 20 a 12 ore UTC


200200Z 2003/2012 VRB05KT 9999 FEW060
Nessun NOTAM noto per questo aeroporto.



MetMap, La meteo Aeronautica in un colpo d'occhio ! - Copyright ORBIFLY Dicembre 2007 - Disclaimer

ORBIFLY MET'MAP TEAM :

Programmazione e sviluppo : Alexandra Zaïnal
Concezione e sviluppo : Baudouin d'Aumeries
Co-Programmazione e sviluppo : Marc-Olivier Méhu
Supporto tecnico e logistico : Manuel Goepfert
Aiuto per la traduzione : Arnaldo La Scala

Contatto : metmap@orbifly.com




FONTI E CREDITI :

   NOAA